Galesville, MD (20765)

3:30 PM EDT on April 25, 2015 (GMT -0400)
Felicity Cove | | Change Station
CLOSE
Current Station
Personal Weather Station
Location: Shady Side, MD
Elevation: 20 ft
Nearby Weather Stations

Elev 20 ft 38.85 °N, 76.49 °W | Updated 35 seconds ago

Overcast
Overcast
52.0 °F
Feels Like 52.0 °F
N
1.0
Wind Variable Wind from South
Gusts 3.0 mph

Today
High -- | Low -- °F
--% Chance of Precip.
Yesterday
High -- | Low -- °F
Precip. -- in
6:16 AM 7:52 PM
Waxing Crescent, 48% visible
Pressure 29.85 in
Visibility 10.0 miles
Clouds Overcast 9500 ft
Dew Point 37 °F
Humidity 56%
Rainfall 0.00 in
Snow Depth Not available.
UV 3 out of 12
Pollen 10.90 out of 12
Air Quality Not available.
Flu Activity Regional
METAR KNAK 251854Z AUTO VRB03KT 10SM OVC095 10/00 A2984 RMK AO2 SLP108 T01000000

More Conditions Fewer Conditions

Pressure 29.85 in
Visibility 10.0 miles
Clouds Overcast 9500 ft
Dew Point 37 °F
Humidity 56%
Rainfall 0.00 in
Snow Depth Not available.
UV 3 out of 12
Pollen 10.90 out of 12
Air Quality Not available.
Flu Activity Regional
METAR KNAK 251854Z AUTO VRB03KT 10SM OVC095 10/00 A2984 RMK AO2 SLP108 T01000000

More Conditions Fewer Conditions

10-Day Weather Forecast

Almanac

Astronomy

Apr. 25, 2015 Rise Set
Actual Time
Civil Twilight
Nautical Twilight
Astronomical Twilight
Moon
Length of Visible Light
Length of Day
Tomorrow will be .
, % of the Moon is Illuminated

Today's Extremes

State Highs State Lows

Community

WunderPhotos

Upload Photos

1,816,783 photos uploaded!

WunderBlogs® & News

Nearby

Air Quality

  Air Quality AQ Index Pollutant
Not available.

Snow Depth

Station Depth Elevation

Earthquake Activity

City Distance Mag. Time & Date
Minimum magnitude displayed is 2.5.

Coastal Water Temperatures

Place Temperature

Stations

Nearby Weather Stations

Station Location Temp. Windchill Dew Point Humidity Wind Precip. Elev Updated Type